Time;durP1;ratioP1;P1;durP2;ratioP2;P2;SDS_P1;SDS_P2;PMS_P1;PMS_P2;Temp;Humidity;BMP_temperature;BMP_pressure;BME280_temperature;BME280_humidity;BME280_pressure;Samples;Min_cycle;Max_cycle;Signal;HPM_P1;HPM_P2
2022/08/30 00:02:24;;;;;;;5.93;3.00;;;;;;;17.76;52.24;100348.03;4988454;28;20293;-67
2022/08/30 00:04:49;;;;;;;5.67;2.50;;;;;;;17.73;50.93;100343.91;4991997;28;20266;-66
2022/08/30 00:07:14;;;;;;;5.27;3.17;;;;;;;17.64;51.86;100347.25;4992378;28;20358;-66
2022/08/30 00:09:40;;;;;;;3.53;2.43;;;;;;;17.65;50.83;100345.47;4992551;28;20203;-66
2022/08/30 00:12:05;;;;;;;4.90;2.60;;;;;;;17.70;50.88;100349.34;4997271;28;20320;-67
2022/08/30 00:14:30;;;;;;;5.17;2.70;;;;;;;17.65;50.54;100350.66;5007043;28;20202;-68
2022/08/30 00:16:56;;;;;;;5.03;2.87;;;;;;;17.77;50.63;100347.06;4992751;28;20195;-67
2022/08/30 00:19:21;;;;;;;5.57;2.77;;;;;;;17.68;50.86;100346.03;4987755;28;20234;-66
2022/08/30 00:21:46;;;;;;;4.67;2.47;;;;;;;17.77;50.40;100348.88;4995059;28;20236;-66
2022/08/30 00:24:11;;;;;;;4.40;2.80;;;;;;;17.74;50.57;100349.94;4995371;28;20643;-66
2022/08/30 00:26:37;;;;;;;5.10;2.80;;;;;;;17.69;51.46;100341.69;4996260;28;20257;-66
2022/08/30 00:29:02;;;;;;;5.33;2.90;;;;;;;17.64;51.23;100336.84;4996457;28;20190;-66
2022/08/30 00:31:27;;;;;;;4.53;2.50;;;;;;;17.68;51.10;100343.44;4996911;28;20740;-66
2022/08/30 00:33:53;;;;;;;5.30;2.63;;;;;;;17.62;51.46;100338.75;4988015;28;20625;-66
2022/08/30 00:36:18;;;;;;;7.73;2.73;;;;;;;17.55;51.58;100334.97;4994300;28;20176;-66
2022/08/30 00:38:43;;;;;;;7.93;2.80;;;;;;;17.57;52.11;100341.69;4996764;28;20192;-66
2022/08/30 00:41:09;;;;;;;7.43;2.70;;;;;;;17.57;52.01;100340.88;4998969;28;20685;-66
2022/08/30 00:43:35;;;;;;;5.37;2.90;;;;;;;17.62;51.98;100343.13;5009500;28;20214;-66
2022/08/30 00:46:03;;;;;;;4.47;2.60;;;;;;;17.50;53.83;100343.16;4990776;28;20187;-66
2022/08/30 00:48:32;;;;;;;5.40;2.70;;;;;;;17.39;55.23;100344.00;4987897;28;20515;-66
2022/08/30 00:51:01;;;;;;;5.97;2.90;;;;;;;17.31;55.14;100345.56;4984041;28;20362;-66
2022/08/30 00:53:32;;;;;;;5.20;2.43;;;;;;;17.25;55.99;100352.06;4985479;28;20207;-66
2022/08/30 00:55:59;;;;;;;4.73;2.60;;;;;;;17.16;57.14;100356.22;4993912;28;20187;-66
2022/08/30 00:58:29;;;;;;;7.13;2.67;;;;;;;17.06;57.67;100353.50;4995891;28;20215;-66
2022/08/30 01:00:57;;;;;;;7.47;3.00;;;;;;;16.91;57.44;100354.69;4986315;28;20234;-66
2022/08/30 01:03:23;;;;;;;6.67;2.33;;;;;;;16.77;58.00;100350.56;4991148;28;20180;-66
2022/08/30 01:05:50;;;;;;;5.17;2.80;;;;;;;16.63;59.28;100361.97;4988464;28;20184;-66
2022/08/30 01:08:16;;;;;;;3.83;2.30;;;;;;;16.54;60.55;100360.09;4989689;28;20180;-69
2022/08/30 01:10:42;;;;;;;4.77;2.43;;;;;;;16.29;59.98;100362.75;4980338;28;20269;-66
2022/08/30 01:13:09;;;;;;;4.97;2.70;;;;;;;16.13;60.50;100368.25;5005517;28;20655;-66
2022/08/30 01:15:35;;;;;;;5.47;3.03;;;;;;;15.99;60.07;100365.84;4990607;28;20188;-66
2022/08/30 01:18:01;;;;;;;4.97;2.83;;;;;;;15.77;60.96;100369.97;4991916;28;20179;-66
2022/08/30 01:20:33;;;;;;;7.47;2.70;;;;;;;15.65;61.66;100358.72;4984139;28;20246;-66
2022/08/30 01:23:12;;;;;;;7.70;2.93;;;;;;;15.61;61.43;100351.25;4990060;28;20508;-66
2022/08/30 01:25:41;;;;;;;7.03;3.60;;;;;;;15.62;62.26;100352.91;4990538;28;20173;-66
2022/08/30 01:28:09;;;;;;;4.50;2.53;;;;;;;15.58;64.71;100359.25;4990977;28;20179;-67
2022/08/30 01:30:41;;;;;;;8.23;2.77;;;;;;;15.62;62.74;100350.31;4990024;28;20586;-66
2022/08/30 01:33:08;;;;;;;7.17;2.73;;;;;;;15.58;65.10;100362.69;4991586;28;20211;-67
2022/08/30 01:35:45;;;;;;;6.27;3.17;;;;;;;15.49;64.49;100348.63;5013101;28;20194;-66
2022/08/30 01:38:13;;;;;;;5.10;2.87;;;;;;;15.50;65.82;100354.63;4990514;28;20262;-69
2022/08/30 01:40:38;;;;;;;7.30;2.83;;;;;;;15.47;66.43;100349.66;4984224;28;20313;-66
2022/08/30 01:43:05;;;;;;;4.57;2.67;;;;;;;15.44;66.58;100350.72;5001017;28;20416;-66
2022/08/30 01:45:32;;;;;;;4.07;2.50;;;;;;;15.37;67.84;100346.91;4988800;28;20195;-66
2022/08/30 01:47:57;;;;;;;3.80;2.60;;;;;;;15.41;67.71;100344.91;4994737;28;20278;-73
2022/08/30 01:50:23;;;;;;;4.23;2.60;;;;;;;15.34;69.30;100349.69;5002663;28;20659;-66
2022/08/30 01:52:48;;;;;;;4.10;2.63;;;;;;;15.32;69.29;100346.41;5007054;28;20663;-66
2022/08/30 01:55:13;;;;;;;4.13;2.70;;;;;;;15.28;69.31;100347.53;4994602;28;20211;-66
2022/08/30 01:57:39;;;;;;;4.60;2.97;;;;;;;15.29;67.87;100350.03;4994781;28;20218;-66
2022/08/30 02:00:07;;;;;;;8.00;3.17;;;;;;;15.19;69.63;100350.78;4984810;28;20262;-66
2022/08/30 02:02:33;;;;;;;4.60;2.60;;;;;;;15.18;69.34;100352.53;5008741;28;20245;-66
2022/08/30 02:04:58;;;;;;;8.17;2.50;;;;;;;15.15;72.31;100358.75;4994323;28;20588;-66
2022/08/30 02:07:23;;;;;;;7.87;3.10;;;;;;;15.12;71.09;100345.19;4994588;28;20183;-66
2022/08/30 02:09:50;;;;;;;4.67;2.20;;;;;;;15.11;71.52;100348.72;4990495;28;20221;-73
2022/08/30 02:12:16;;;;;;;8.73;2.53;;;;;;;15.13;70.55;100346.84;4979069;28;20231;-66
2022/08/30 02:14:41;;;;;;;8.03;3.03;;;;;;;15.03;71.76;100346.66;4988617;28;20184;-67
2022/08/30 02:17:08;;;;;;;3.53;2.60;;;;;;;15.00;73.44;100347.69;4992216;28;20270;-67
2022/08/30 02:19:34;;;;;;;3.47;2.60;;;;;;;14.94;75.08;100347.31;4990690;28;20278;-66
2022/08/30 02:22:00;;;;;;;6.00;2.83;;;;;;;14.93;73.90;100349.03;4983799;28;20643;-66
2022/08/30 02:24:26;;;;;;;10.33;2.43;;;;;;;14.92;73.19;100349.16;4991898;28;20270;-66
2022/08/30 02:26:54;;;;;;;5.87;2.87;;;;;;;14.87;73.57;100349.47;4990642;28;20823;-67
2022/08/30 02:29:21;;;;;;;7.27;2.73;;;;;;;14.83;73.82;100348.03;4993049;28;20629;-66
2022/08/30 02:31:46;;;;;;;5.80;2.57;;;;;;;14.72;76.13;100341.00;4983829;28;20604;-66
2022/08/30 02:34:12;;;;;;;3.23;2.23;;;;;;;14.79;73.99;100344.81;4987477;28;20179;-67
2022/08/30 02:36:39;;;;;;;4.47;2.97;;;;;;;14.82;73.03;100339.44;4993384;28;20191;-66
2022/08/30 02:39:05;;;;;;;4.37;2.83;;;;;;;14.82;73.08;100338.59;4988922;28;20634;-66
2022/08/30 02:41:30;;;;;;;7.73;2.60;;;;;;;14.82;72.07;100328.25;4986089;28;20253;-68
2022/08/30 02:43:58;;;;;;;3.87;2.63;;;;;;;14.79;71.94;100323.28;4990502;28;21448;-80
2022/08/30 02:46:23;;;;;;;4.53;2.53;;;;;;;14.74;74.59;100320.19;4992619;28;20201;-66
2022/08/30 02:48:49;;;;;;;4.17;2.67;;;;;;;14.74;73.64;100321.00;4991542;28;20191;-66
2022/08/30 02:51:14;;;;;;;4.00;2.90;;;;;;;14.69;74.14;100317.91;4993945;28;20600;-66
2022/08/30 02:53:42;;;;;;;3.77;2.77;;;;;;;14.62;76.32;100324.41;4989554;28;20203;-69
2022/08/30 02:56:08;;;;;;;4.10;2.70;;;;;;;14.55;77.18;100325.75;4988956;28;20191;-66
2022/08/30 02:58:33;;;;;;;3.60;2.20;;;;;;;14.42;79.76;100326.56;5005682;28;20179;-68
2022/08/30 03:00:59;;;;;;;4.33;2.43;;;;;;;14.48;80.42;100322.75;4965699;28;20242;-66
2022/08/30 03:03:24;;;;;;;6.47;3.13;;;;;;;14.56;79.76;100320.47;4989436;28;20180;-66
2022/08/30 03:05:49;;;;;;;4.27;3.17;;;;;;;14.49;78.00;100317.47;4990764;28;20278;-66
2022/08/30 03:08:15;;;;;;;3.97;2.30;;;;;;;14.50;77.02;100310.56;4991557;28;20214;-69
2022/08/30 03:10:40;;;;;;;4.87;2.70;;;;;;;14.54;77.04;100314.56;4984181;28;20332;-67
2022/08/30 03:13:08;;;;;;;3.67;2.60;;;;;;;14.58;75.70;100317.78;4986260;28;20216;-69
2022/08/30 03:15:35;;;;;;;5.43;2.77;;;;;;;14.55;75.43;100312.81;4980775;28;20310;-67
2022/08/30 03:18:00;;;;;;;3.80;2.40;;;;;;;14.48;77.02;100318.41;4983693;28;21054;-66
2022/08/30 03:20:26;;;;;;;7.90;3.13;;;;;;;14.42;78.72;100315.41;4983992;28;20693;-66
2022/08/30 03:22:52;;;;;;;3.37;2.60;;;;;;;14.43;78.03;100317.06;4982474;28;20180;-67
2022/08/30 03:25:22;;;;;;;7.87;3.17;;;;;;;14.40;77.18;100322.44;4990016;28;20245;-67
2022/08/30 03:27:49;;;;;;;5.80;2.50;;;;;;;14.44;77.04;100319.53;4989145;28;20195;-69
2022/08/30 03:30:16;;;;;;;5.03;2.90;;;;;;;14.37;78.89;100320.88;4960459;28;20179;-66
2022/08/30 03:32:41;;;;;;;5.37;3.00;;;;;;;14.13;80.55;100328.53;4970865;28;20314;-67
2022/08/30 03:35:08;;;;;;;3.63;2.80;;;;;;;14.18;80.42;100329.06;4987326;28;20278;-66
2022/08/30 03:37:34;;;;;;;5.53;2.77;;;;;;;14.16;80.78;100331.72;4985479;28;20243;-66
2022/08/30 03:40:02;;;;;;;4.47;3.00;;;;;;;14.30;79.07;100320.47;4978966;28;20232;-66
2022/08/30 03:42:27;;;;;;;4.97;2.70;;;;;;;14.23;79.60;100313.19;4977290;28;20237;-67
2022/08/30 03:44:53;;;;;;;5.03;2.80;;;;;;;14.20;78.95;100317.66;4989937;28;20190;-66
2022/08/30 03:47:19;;;;;;;5.27;2.90;;;;;;;14.23;78.21;100315.78;4991851;28;20603;-67
2022/08/30 03:49:45;;;;;;;6.83;2.97;;;;;;;14.19;78.28;100312.59;4989755;28;20640;-66
2022/08/30 03:52:10;;;;;;;5.13;2.67;;;;;;;14.22;77.37;100311.56;4995101;28;20226;-78
2022/08/30 03:54:35;;;;;;;3.43;2.93;;;;;;;14.17;77.14;100311.88;4987100;28;20192;-72
2022/08/30 03:57:00;;;;;;;8.20;3.47;;;;;;;14.18;77.13;100308.34;4988883;28;20191;-66
2022/08/30 03:59:26;;;;;;;3.97;2.90;;;;;;;14.19;77.29;100310.00;4988001;28;20257;-70
2022/08/30 04:01:51;;;;;;;4.63;2.90;;;;;;;14.09;79.08;100307.22;4994545;28;20678;-67
2022/08/30 04:04:17;;;;;;;5.20;2.97;;;;;;;14.08;79.39;100307.28;4987654;28;20183;-67
2022/08/30 04:06:43;;;;;;;4.33;2.80;;;;;;;14.08;79.71;100315.88;4987648;28;20183;-66
2022/08/30 04:09:09;;;;;;;5.33;2.80;;;;;;;14.09;79.97;100314.97;4990253;28;20187;-67
2022/08/30 04:11:34;;;;;;;5.87;3.10;;;;;;;14.07;80.52;100316.81;4992451;28;20229;-67
2022/08/30 04:14:00;;;;;;;4.13;2.70;;;;;;;14.09;81.21;100314.13;4992288;28;20218;-67
2022/08/30 04:16:25;;;;;;;3.87;2.60;;;;;;;14.06;81.54;100306.56;4990690;28;20191;-67
2022/08/30 04:18:51;;;;;;;5.27;2.77;;;;;;;14.09;81.21;100314.13;4989867;28;20205;-71
2022/08/30 04:21:16;;;;;;;5.30;3.07;;;;;;;13.93;85.24;100315.13;4989904;28;20322;-68
2022/08/30 04:23:42;;;;;;;4.67;2.57;;;;;;;13.97;84.39;100316.59;4994266;28;20272;-70
2022/08/30 04:26:08;;;;;;;5.27;2.97;;;;;;;14.08;83.75;100323.66;4989383;28;20203;-67
2022/08/30 04:28:34;;;;;;;5.73;3.13;;;;;;;14.05;83.52;100318.66;4990794;28;20297;-67
2022/08/30 04:31:05;;;;;;;6.30;2.90;;;;;;;14.00;84.90;100320.72;4989236;28;20265;-73
2022/08/30 04:33:33;;;;;;;4.67;3.20;;;;;;;13.95;86.65;100315.84;4990215;28;20800;-67
2022/08/30 04:36:03;;;;;;;4.97;3.00;;;;;;;14.01;84.84;100325.78;4989009;28;20190;-67
2022/08/30 04:38:28;;;;;;;4.43;3.10;;;;;;;14.02;84.27;100321.47;4983842;28;20184;-65
2022/08/30 04:40:54;;;;;;;3.63;2.77;;;;;;;14.05;85.06;100323.84;4982872;28;20240;-67
2022/08/30 04:43:19;;;;;;;3.97;2.67;;;;;;;14.04;84.20;100328.19;4989322;28;20179;-67
2022/08/30 04:45:44;;;;;;;4.50;3.00;;;;;;;14.16;83.64;100328.31;5005033;28;20667;-67
2022/08/30 04:48:10;;;;;;;5.03;3.17;;;;;;;14.10;84.80;100332.13;4985760;28;20199;-67
2022/08/30 04:50:35;;;;;;;4.97;3.23;;;;;;;14.06;85.76;100327.28;4981917;28;20215;-67
2022/08/30 04:53:00;;;;;;;6.30;3.13;;;;;;;14.04;89.43;100328.19;5002241;28;20269;-67
2022/08/30 04:55:25;;;;;;;4.30;2.60;;;;;;;14.17;87.19;100323.03;4988611;28;20241;-67
2022/08/30 04:57:51;;;;;;;5.47;3.17;;;;;;;14.18;87.29;100323.88;4988742;28;20187;-69
2022/08/30 05:00:19;;;;;;;5.43;3.20;;;;;;;14.20;86.79;100324.59;4989940;28;20271;-68
2022/08/30 05:02:45;;;;;;;5.87;3.23;;;;;;;14.25;85.10;100330.31;4968208;28;20171;-69
2022/08/30 05:07:54;;;;;;;8.27;3.70;;;;;;;14.23;86.43;100334.75;4988619;28;20195;-67
2022/08/30 05:10:20;;;;;;;5.97;3.10;;;;;;;14.34;87.09;100334.03;4982807;28;20635;-66
2022/08/30 05:12:45;;;;;;;5.17;3.20;;;;;;;14.38;87.61;100340.66;5006305;28;20738;-66
2022/08/30 05:15:11;;;;;;;7.97;3.53;;;;;;;14.52;85.94;100352.66;4990780;28;20191;-66
2022/08/30 05:17:38;;;;;;;6.93;3.33;;;;;;;14.50;86.28;100351.97;4993454;28;20195;-67
2022/08/30 05:20:08;;;;;;;7.20;3.17;;;;;;;14.59;85.96;100347.94;4983108;28;20596;-69
2022/08/30 05:22:39;;;;;;;5.97;3.27;;;;;;;14.67;84.53;100349.09;5002382;28;20630;-66
2022/08/30 05:25:06;;;;;;;6.17;3.93;;;;;;;14.80;84.49;100356.03;4990799;28;20180;-67
2022/08/30 05:27:32;;;;;;;6.70;3.20;;;;;;;14.89;84.61;100357.16;4989263;28;20277;-66
2022/08/30 05:29:57;;;;;;;7.30;3.60;;;;;;;15.05;83.10;100362.94;4991845;28;20184;-80
2022/08/30 05:32:23;;;;;;;9.73;4.13;;;;;;;15.18;81.52;100362.88;4972385;28;20246;-66
2022/08/30 05:34:48;;;;;;;6.83;3.57;;;;;;;15.28;80.11;100365.66;4992707;28;20495;-66
2022/08/30 05:37:14;;;;;;;6.97;3.37;;;;;;;15.41;79.67;100363.88;4990704;28;20215;-66
2022/08/30 05:39:39;;;;;;;5.40;3.07;;;;;;;15.45;77.45;100372.25;4986273;28;20306;-67
2022/08/30 05:42:05;;;;;;;5.63;3.33;;;;;;;15.60;76.58;100370.34;4986653;28;20246;-66
2022/08/30 05:44:30;;;;;;;7.33;3.00;;;;;;;15.79;74.98;100375.06;4996063;28;20172;-68
2022/08/30 05:46:55;;;;;;;7.77;2.90;;;;;;;15.95;73.23;100375.63;4992416;28;20555;-66
2022/08/30 05:49:20;;;;;;;6.40;3.63;;;;;;;16.10;72.23;100378.00;4994001;28;20183;-66
2022/08/30 05:51:46;;;;;;;6.83;3.00;;;;;;;16.28;71.01;100375.84;4993209;28;20226;-68
2022/08/30 05:54:13;;;;;;;10.83;3.47;;;;;;;16.45;70.40;100364.22;4990799;28;20215;-68
2022/08/30 05:56:40;;;;;;;6.40;3.43;;;;;;;16.51;69.64;100363.75;4988288;28;20642;-66
2022/08/30 05:59:07;;;;;;;8.60;3.00;;;;;;;16.62;68.40;100362.91;4987821;28;20171;-67
2022/08/30 06:01:36;;;;;;;8.90;3.40;;;;;;;16.61;68.54;100364.69;4979380;28;20231;-66
2022/08/30 06:04:03;;;;;;;7.67;3.27;;;;;;;16.77;69.44;100355.75;4985715;28;20192;-67
2022/08/30 06:06:29;;;;;;;7.33;3.60;;;;;;;16.89;68.93;100351.38;4991496;28;20262;-67
2022/08/30 06:08:56;;;;;;;9.37;3.27;;;;;;;17.06;66.35;100353.50;4992430;28;20196;-66
2022/08/30 06:11:24;;;;;;;8.00;3.07;;;;;;;17.15;67.72;100359.75;4980070;28;20239;-68
2022/08/30 06:13:50;;;;;;;11.20;3.10;;;;;;;17.22;67.83;100366.13;4988429;28;20207;-66
2022/08/30 06:16:19;;;;;;;11.10;3.33;;;;;;;17.31;67.41;100364.59;5004216;28;20340;-67
2022/08/30 06:18:45;;;;;;;4.27;2.70;;;;;;;17.67;64.19;100361.78;4987374;28;20184;-67
2022/08/30 06:21:18;;;;;;;12.73;3.50;;;;;;;17.88;62.96;100361.81;4994990;28;20322;-72
2022/08/30 06:23:44;;;;;;;7.77;2.90;;;;;;;18.15;62.62;100357.97;4983677;28;20666;-67
2022/08/30 06:26:09;;;;;;;9.33;3.37;;;;;;;18.07;62.00;100368.97;4989740;28;20210;-67
2022/08/30 06:28:35;;;;;;;4.43;3.07;;;;;;;18.13;61.45;100359.84;4992990;28;20206;-70
2022/08/30 06:31:00;;;;;;;6.53;2.93;;;;;;;18.22;60.27;100362.53;4994742;28;20296;-66
2022/08/30 06:33:25;;;;;;;7.27;3.23;;;;;;;18.50;59.99;100359.41;4981444;28;20729;-66
2022/08/30 06:35:51;;;;;;;5.23;2.90;;;;;;;18.63;59.01;100360.00;4990132;28;20191;-67
2022/08/30 06:38:16;;;;;;;7.83;3.03;;;;;;;18.95;57.33;100361.69;4981986;28;20200;-68
2022/08/30 06:40:41;;;;;;;7.27;3.07;;;;;;;19.36;56.34;100369.47;4999330;28;20230;-68
2022/08/30 06:43:07;;;;;;;8.70;3.30;;;;;;;19.96;52.71;100373.81;4997484;28;20562;-67
2022/08/30 06:45:33;;;;;;;4.07;2.90;;;;;;;20.54;49.74;100372.06;4986040;28;20190;-67
2022/08/30 06:47:59;;;;;;;7.30;3.40;;;;;;;20.99;48.01;100366.16;4991096;28;20180;-67
2022/08/30 06:50:24;;;;;;;8.70;2.90;;;;;;;21.60;46.51;100369.94;4986364;28;20272;-66
2022/08/30 06:52:50;;;;;;;7.90;3.50;;;;;;;22.12;44.25;100375.47;5005205;28;20678;-67
2022/08/30 06:55:17;;;;;;;8.90;3.17;;;;;;;23.63;40.63;100378.44;4992850;28;20520;-68
2022/08/30 06:57:43;;;;;;;9.53;3.33;;;;;;;23.73;40.62;100380.94;4990212;28;20527;-66
2022/08/30 07:00:11;;;;;;;5.47;3.33;;;;;;;25.39;36.47;100382.22;4971721;28;20230;-67
2022/08/30 07:02:39;;;;;;;11.40;3.20;;;;;;;24.74;38.26;100391.22;4988931;28;20652;-68
2022/08/30 07:05:05;;;;;;;6.88;2.97;;;;;;;24.28;37.69;100395.22;4991590;28;20184;-69
2022/08/30 07:07:30;;;;;;;9.55;2.90;;;;;;;25.36;36.61;100392.25;4989416;28;20188;-67
2022/08/30 07:09:56;;;;;;;6.03;2.70;;;;;;;26.72;34.09;100395.09;4992029;28;20261;-68
2022/08/30 07:12:21;;;;;;;5.30;3.20;;;;;;;25.64;35.38;100403.13;4976646;28;20247;-68
2022/08/30 07:14:47;;;;;;;8.20;2.80;;;;;;;25.24;35.85;100397.91;4990746;28;20205;-67
2022/08/30 07:19:56;;;;;;;12.15;3.45;;;;;;;25.73;34.97;100390.72;4991692;28;20265;-66
2022/08/30 07:22:21;;;;;;;5.13;2.72;;;;;;;25.00;36.61;100392.75;4992766;28;20236;-70
2022/08/30 07:24:47;;;;;;;7.47;2.53;;;;;;;24.82;37.05;100393.81;4992089;28;20559;-68
2022/08/30 07:27:13;;;;;;;7.20;3.22;;;;;;;24.97;36.12;100397.38;4992621;28;20191;-67
2022/08/30 07:29:38;;;;;;;3.97;2.55;;;;;;;25.73;35.58;100398.63;4990323;28;20191;-67
2022/08/30 07:32:04;;;;;;;9.65;3.17;;;;;;;26.36;34.45;100393.16;4960931;28;20227;-67
2022/08/30 07:34:29;;;;;;;6.95;2.95;;;;;;;25.88;34.97;100401.31;4994423;28;20543;-66
2022/08/30 07:36:54;;;;;;;5.82;3.20;;;;;;;26.33;34.27;100398.78;4992509;28;20623;-70
2022/08/30 07:39:20;;;;;;;5.32;2.65;;;;;;;25.67;34.55;100401.97;4978943;28;20334;-67
2022/08/30 07:41:47;;;;;;;5.30;2.58;;;;;;;25.72;34.39;100404.88;4982481;28;20235;-66
2022/08/30 07:44:13;;;;;;;6.85;3.15;;;;;;;26.52;34.00;100407.97;4988586;28;20189;-67
2022/08/30 07:46:39;;;;;;;6.18;2.70;;;;;;;25.84;34.47;100414.00;4992799;28;20184;-67
2022/08/30 07:49:05;;;;;;;4.05;2.95;;;;;;;26.90;33.52;100414.03;4992070;28;20184;-66
2022/08/30 07:51:32;;;;;;;3.10;2.40;;;;;;;28.00;31.34;100411.31;4980715;28;20234;-67
2022/08/30 07:53:59;;;;;;;4.35;2.45;;;;;;;28.01;30.49;100409.50;4985038;28;20290;-71
2022/08/30 07:56:24;;;;;;;7.28;2.90;;;;;;;28.54;29.90;100413.56;4990416;28;20196;-67
2022/08/30 07:58:49;;;;;;;8.55;3.17;;;;;;;28.02;30.72;100408.47;4992379;28;20206;-67
2022/08/30 08:01:15;;;;;;;4.78;3.00;;;;;;;26.83;32.94;100410.50;4990552;28;20611;-66
2022/08/30 08:03:42;;;;;;;5.25;2.97;;;;;;;25.80;34.14;100414.53;4994760;28;20187;-79
2022/08/30 08:06:11;;;;;;;5.38;2.53;;;;;;;26.33;33.59;100412.78;4989847;28;20211;-69
2022/08/30 08:08:38;;;;;;;4.43;2.63;;;;;;;26.49;33.77;100403.09;4993106;28;20278;-69
2022/08/30 08:11:06;;;;;;;7.47;2.78;;;;;;;26.78;32.87;100412.03;4980313;28;20262;-67
2022/08/30 08:13:32;;;;;;;8.05;2.90;;;;;;;26.15;33.78;100405.22;4983118;28;20265;-67
2022/08/30 08:15:57;;;;;;;7.22;3.33;;;;;;;27.38;32.72;100405.63;4991378;28;20199;-76
2022/08/30 08:18:23;;;;;;;3.30;2.65;;;;;;;27.36;32.30;100410.31;4988444;28;20186;-67
2022/08/30 08:20:48;;;;;;;8.55;3.10;;;;;;;27.12;32.48;100400.88;4982030;28;20686;-67
2022/08/30 08:23:14;;;;;;;8.95;3.00;;;;;;;26.66;33.24;100412.44;4996725;28;20191;-67
2022/08/30 08:25:40;;;;;;;11.15;3.22;;;;;;;27.43;31.87;100407.75;4991123;28;20175;-67
2022/08/30 08:28:06;;;;;;;8.30;3.15;;;;;;;29.20;29.58;100406.94;4992003;28;20584;-66
2022/08/30 08:30:34;;;;;;;7.05;3.00;;;;;;;27.60;31.58;100407.50;4986182;28;20234;-67
2022/08/30 08:33:00;;;;;;;8.27;3.30;;;;;;;27.34;32.05;100411.50;4980145;28;20214;-67
2022/08/30 08:35:26;;;;;;;13.75;3.45;;;;;;;27.56;31.76;100408.88;4991653;28;20175;-67
2022/08/30 08:37:52;;;;;;;10.82;3.30;;;;;;;28.30;30.85;100411.16;4982834;28;20586;-67
2022/08/30 08:40:18;;;;;;;5.60;2.70;;;;;;;27.91;31.17;100412.47;4997705;28;20254;-67
2022/08/30 08:42:57;;;;;;;6.85;3.13;;;;;;;27.77;31.49;100405.44;5002540;28;20232;-67
2022/08/30 08:45:39;;;;;;;8.75;3.28;;;;;;;28.47;30.16;100413.53;4987713;28;20663;-68
2022/08/30 08:48:10;;;;;;;9.35;3.08;;;;;;;28.01;30.35;100410.31;4993230;28;20634;-67
2022/08/30 08:53:33;;;;;;;8.38;3.00;;;;;;;27.39;31.30;100393.25;4984030;28;20235;-67
2022/08/30 08:53:33;;;;;;;5.38;2.97;;;;;;;28.17;30.59;100406.59;4993977;28;20707;-68
2022/08/30 08:55:59;;;;;;;6.88;2.67;;;;;;;28.61;30.08;100404.63;4988016;28;20180;-67
2022/08/30 08:58:28;;;;;;;9.50;2.90;;;;;;;29.42;29.08;100405.81;4983862;28;20175;-67
2022/08/30 09:00:56;;;;;;;5.43;2.55;;;;;;;28.93;29.51;100405.03;5001313;28;20226;-67
2022/08/30 09:03:24;;;;;;;7.13;2.90;;;;;;;29.60;28.98;100399.13;4993922;28;20195;-67
2022/08/30 09:05:50;;;;;;;8.57;3.30;;;;;;;28.29;30.69;100395.50;4989757;28;20359;-67
2022/08/30 09:08:18;;;;;;;6.85;3.15;;;;;;;28.30;30.63;100394.50;4995307;28;20203;-67
2022/08/30 09:10:56;;;;;;;9.75;3.25;;;;;;;28.93;29.82;100396.28;4983016;28;20238;-67
2022/08/30 09:13:23;;;;;;;5.55;2.78;;;;;;;28.79;30.12;100401.50;4984806;28;20206;-67
2022/08/30 09:15:50;;;;;;;7.28;2.83;;;;;;;28.81;30.16;100396.00;4992509;28;20183;-67
2022/08/30 09:18:17;;;;;;;9.07;2.90;;;;;;;28.10;30.65;100397.81;5010300;28;20183;-67
2022/08/30 09:20:47;;;;;;;5.40;4.55;;;;;;;28.92;29.84;100395.44;5000337;28;20245;-67
2022/08/30 09:23:12;;;;;;;5.93;2.83;;;;;;;28.69;29.46;100400.22;4990124;28;20239;-71
2022/08/30 09:25:37;;;;;;;5.97;2.80;;;;;;;29.33;28.68;100400.91;4987210;28;20624;-67
2022/08/30 09:28:12;;;;;;;3.78;2.60;;;;;;;28.83;29.20;100399.28;4993329;28;20210;-67
2022/08/30 09:30:39;;;;;;;7.88;3.00;;;;;;;29.24;28.90;100392.31;4985965;28;20325;-67
2022/08/30 09:33:17;;;;;;;5.13;2.92;;;;;;;29.54;28.52;100395.44;4981606;28;20257;-67
2022/08/30 09:35:48;;;;;;;8.35;2.92;;;;;;;31.03;26.09;100391.56;4995190;28;20187;-71
2022/08/30 09:38:38;;;;;;;5.43;2.78;;;;;;;30.42;26.83;100382.97;4986007;28;20183;-68
2022/08/30 09:41:48;;;;;;;7.95;3.38;;;;;;;30.33;27.42;100385.03;4981954;28;20236;-67
2022/08/30 09:44:18;;;;;;;6.93;3.15;;;;;;;30.85;26.84;100382.44;5020797;28;20328;-67
2022/08/30 09:46:55;;;;;;;5.05;2.70;;;;;;;30.20;26.91;100372.59;5030810;28;20193;-67
2022/08/30 09:49:33;;;;;;;4.53;2.38;;;;;;;30.19;26.83;100368.34;5030834;28;20189;-67
2022/08/30 09:52:21;;;;;;;7.22;3.20;;;;;;;31.33;25.63;100375.06;5005200;28;20229;-68
2022/08/30 09:55:07;;;;;;;6.55;2.53;;;;;;;30.47;26.51;100363.78;5030294;28;20190;-67
2022/08/30 09:57:45;;;;;;;8.63;2.55;;;;;;;30.93;25.95;100362.00;5026006;28;20527;-67
2022/08/30 10:00:18;;;;;;;6.22;3.20;;;;;;;30.64;26.31;100372.94;5003992;28;20271;-67
2022/08/30 10:03:21;;;;;;;7.57;2.88;;;;;;;30.39;26.44;100362.97;5029634;28;20232;-67
2022/08/30 10:05:54;;;;;;;6.80;2.67;;;;;;;31.49;25.03;100358.59;5024905;28;20189;-67
2022/08/30 10:08:29;;;;;;;6.97;3.20;;;;;;;30.49;26.36;100354.63;5016954;28;20185;-67
2022/08/30 10:11:06;;;;;;;10.23;6.10;;;;;;;29.46;27.60;100358.56;4999445;28;22074;-67
2022/08/30 10:14:05;;;;;;;8.02;6.40;;;;;;;30.14;27.29;100357.50;5011021;28;20286;-70
2022/08/30 10:16:49;;;;;;;4.53;2.40;;;;;;;30.07;26.40;100359.38;4994803;28;20266;-67
2022/08/30 10:19:23;;;;;;;6.75;2.80;;;;;;;30.61;26.19;100365.38;4992495;28;20509;-67
2022/08/30 10:21:57;;;;;;;6.45;2.53;;;;;;;31.25;25.29;100354.06;4973740;28;20238;-67
2022/08/30 10:24:34;;;;;;;4.05;2.47;;;;;;;31.76;24.36;100350.44;4987460;28;20616;-67
2022/08/30 10:27:09;;;;;;;3.97;3.28;;;;;;;29.86;26.45;100345.28;4981389;28;20193;-67
2022/08/30 10:29:42;;;;;;;7.38;2.65;;;;;;;30.58;25.73;100347.22;5004172;28;20179;-72
2022/08/30 10:32:31;;;;;;;11.02;4.15;;;;;;;29.45;26.67;100338.38;4994039;28;20234;-67
2022/08/30 10:35:06;;;;;;;7.07;3.25;;;;;;;28.85;28.10;100340.84;4991183;28;20186;-66
2022/08/30 10:37:38;;;;;;;4.20;2.80;;;;;;;28.54;28.42;100340.28;4992111;28;20187;-69
2022/08/30 10:43:18;;;;;;;3.47;2.22;;;;;;;26.52;31.10;100320.94;4997084;28;20241;-67
2022/08/30 10:45:46;;;;;;;6.18;2.92;;;;;;;26.61;30.87;100319.84;4992688;28;20191;-66
2022/08/30 10:48:47;;;;;;;4.07;2.30;;;;;;;26.54;31.53;100329.50;4991175;28;20278;-69
2022/08/30 10:51:26;;;;;;;4.68;2.83;;;;;;;26.20;29.71;100323.78;4991135;28;20306;-67
2022/08/30 10:53:58;;;;;;;3.83;2.15;;;;;;;26.04;31.12;100321.28;4984425;28;20222;-67
2022/08/30 10:56:28;;;;;;;4.50;2.28;;;;;;;26.18;30.73;100323.13;4991218;28;20261;-66
2022/08/30 10:58:55;;;;;;;11.57;3.20;;;;;;;26.19;31.05;100316.84;4989457;28;20678;-67
2022/08/30 11:01:35;;;;;;;5.63;2.50;;;;;;;26.19;30.22;100322.13;4959003;28;20232;-67
2022/08/30 11:04:03;;;;;;;4.60;2.40;;;;;;;26.01;30.12;100317.19;4963899;28;20504;-67
2022/08/30 11:07:04;;;;;;;5.07;2.30;;;;;;;25.91;30.34;100317.44;4978660;28;20199;-66
2022/08/30 11:09:59;;;;;;;4.43;2.58;;;;;;;25.94;30.26;100314.44;4976795;28;20174;-67
2022/08/30 11:12:36;;;;;;;4.10;2.45;;;;;;;26.27;29.91;100313.31;4975073;28;20250;-67
2022/08/30 11:15:18;;;;;;;6.97;2.78;;;;;;;26.17;30.86;100313.59;4974744;28;20191;-67
2022/08/30 11:18:08;;;;;;;3.33;2.22;;;;;;;26.18;30.81;100311.78;4973792;28;20252;-67
2022/08/30 11:20:44;;;;;;;12.05;3.08;;;;;;;25.96;30.91;100311.63;4994606;28;20234;-66
2022/08/30 11:23:21;;;;;;;3.60;2.67;;;;;;;26.23;31.17;100310.25;4983865;28;20187;-66
2022/08/30 11:25:54;;;;;;;5.07;2.80;;;;;;;26.31;31.12;100309.31;4986815;28;20195;-67
2022/08/30 11:28:35;;;;;;;8.38;3.00;;;;;;;26.32;30.53;100296.94;4989737;28;20628;-68
2022/08/30 11:31:16;;;;;;;5.13;2.67;;;;;;;26.27;30.95;100308.03;4960076;28;20733;-68
2022/08/30 11:33:43;;;;;;;6.18;2.53;;;;;;;26.04;31.08;100302.84;4991064;28;20211;-70
2022/08/30 11:36:31;;;;;;;4.90;2.63;;;;;;;26.34;31.19;100295.75;4995948;28;20241;-67
2022/08/30 11:39:34;;;;;;;6.32;2.35;;;;;;;26.49;30.61;100300.22;4978127;28;20270;-67
2022/08/30 11:42:12;;;;;;;6.03;2.55;;;;;;;26.71;30.05;100290.56;5005610;28;20233;-67